createdAt,value
2019-01-20T00:00:56.695Z,17.40
2019-01-20T00:03:25.879Z,16.20
2019-01-20T00:05:54.788Z,12.90
2019-01-20T00:08:23.728Z,18.23
2019-01-20T00:10:52.640Z,15.80
2019-01-20T00:13:21.689Z,23.10
2019-01-20T00:15:51.962Z,18.52
2019-01-20T00:18:23.038Z,18.87
2019-01-20T00:20:51.979Z,17.82
2019-01-20T00:23:23.831Z,16.57
2019-01-20T00:25:53.695Z,15.13
2019-01-20T00:28:22.744Z,14.03
2019-01-20T00:30:53.001Z,13.48
2019-01-20T00:33:21.981Z,13.48
2019-01-20T00:35:51.029Z,16.12
2019-01-20T00:38:20.033Z,13.68
2019-01-20T00:40:48.975Z,15.88
2019-01-20T00:43:19.141Z,14.73
2019-01-20T00:45:47.941Z,22.42
2019-01-20T00:48:16.955Z,20.65
2019-01-20T00:50:45.812Z,17.42
2019-01-20T00:53:14.985Z,21.75
2019-01-20T00:55:45.366Z,25.17
2019-01-20T00:58:14.437Z,28.32
2019-01-20T01:00:44.862Z,25.65
2019-01-20T01:03:14.181Z,32.23
2019-01-20T01:05:43.187Z,29.75
2019-01-20T01:08:14.814Z,30.02
2019-01-20T01:10:53.556Z,31.37
2019-01-20T01:13:23.097Z,26.07
2019-01-20T01:15:52.194Z,26.35
2019-01-20T01:18:21.135Z,25.62
2019-01-20T01:20:50.041Z,22.50
2019-01-20T01:23:21.841Z,24.63
2019-01-20T01:25:50.776Z,28.25
2019-01-20T01:28:19.906Z,23.95
2019-01-20T01:30:48.913Z,22.25
2019-01-20T01:33:17.899Z,20.10
2019-01-20T01:35:46.903Z,15.40
2019-01-20T01:38:15.833Z,19.95
2019-01-20T01:40:44.653Z,19.92
2019-01-20T01:43:13.575Z,24.55
2019-01-20T01:45:42.621Z,20.17
2019-01-20T01:48:11.500Z,21.52
2019-01-20T01:50:40.318Z,24.98
2019-01-20T01:53:09.303Z,16.40
2019-01-20T01:55:39.207Z,22.80
2019-01-20T01:58:08.349Z,24.55
2019-01-20T02:00:37.429Z,19.52
2019-01-20T02:03:06.445Z,18.40
2019-01-20T02:05:36.824Z,18.62
2019-01-20T02:08:06.243Z,17.87
2019-01-20T02:10:35.701Z,23.20
2019-01-20T02:13:04.809Z,21.30
2019-01-20T02:15:33.802Z,18.42
2019-01-20T02:18:02.903Z,22.52
2019-01-20T02:20:34.490Z,21.45
2019-01-20T02:23:03.359Z,21.60
2019-01-20T02:25:32.276Z,17.77
2019-01-20T02:28:01.290Z,18.40
2019-01-20T02:30:31.144Z,23.83
2019-01-20T02:33:08.228Z,25.52
2019-01-20T02:35:35.154Z,21.80
2019-01-20T02:38:05.887Z,23.62
2019-01-20T02:40:36.337Z,26.10
2019-01-20T02:43:06.606Z,23.25
2019-01-20T02:45:35.485Z,26.50
2019-01-20T02:48:07.847Z,26.93
2019-01-20T02:50:37.171Z,20.97
2019-01-20T02:53:06.400Z,26.17
2019-01-20T02:55:35.522Z,23.15
2019-01-20T02:58:07.257Z,18.67
2019-01-20T03:00:36.693Z,27.98
2019-01-20T03:03:05.644Z,18.77
2019-01-20T03:05:34.762Z,18.35
2019-01-20T03:08:03.758Z,21.55
2019-01-20T03:10:33.376Z,20.43
2019-01-20T03:13:02.285Z,22.45
2019-01-20T03:15:31.325Z,23.95
2019-01-20T03:18:00.223Z,19.02
2019-01-20T03:20:29.087Z,22.27
2019-01-20T03:22:57.987Z,18.92
2019-01-20T03:25:30.391Z,21.90
2019-01-20T03:27:59.283Z,20.77
2019-01-20T03:30:28.999Z,22.73
2019-01-20T03:32:57.909Z,23.00
2019-01-20T03:35:28.207Z,21.42
2019-01-20T03:37:59.948Z,20.02
2019-01-20T03:40:30.216Z,18.98
2019-01-20T03:43:01.921Z,25.00
2019-01-20T03:45:30.813Z,16.07
2019-01-20T03:48:01.167Z,16.90
2019-01-20T03:50:30.531Z,20.20
2019-01-20T03:53:00.067Z,17.87
2019-01-20T03:55:29.865Z,22.00
2019-01-20T03:58:00.146Z,16.15
2019-01-20T04:00:29.062Z,16.67
2019-01-20T04:03:00.023Z,18.87
2019-01-20T04:05:30.610Z,16.87
2019-01-20T04:07:59.955Z,22.27
2019-01-20T04:10:30.189Z,23.27
2019-01-20T04:12:59.383Z,27.52
2019-01-20T04:15:29.551Z,15.63
2019-01-20T04:17:58.484Z,18.92
2019-01-20T04:20:27.880Z,17.87
2019-01-20T04:22:56.753Z,25.02
2019-01-20T04:25:25.623Z,20.27
2019-01-20T04:27:54.653Z,17.45
2019-01-20T04:30:23.652Z,18.25
2019-01-20T04:32:52.676Z,17.80
2019-01-20T04:35:23.009Z,17.00
2019-01-20T04:37:53.993Z,17.05
2019-01-20T04:40:23.499Z,21.62
2019-01-20T04:42:52.509Z,20.23
2019-01-20T04:45:24.812Z,18.90
2019-01-20T04:47:54.078Z,21.93
2019-01-20T04:50:24.847Z,18.37
2019-01-20T04:52:53.720Z,15.45
2019-01-20T04:55:25.848Z,12.53
2019-01-20T04:57:55.440Z,19.65
2019-01-20T05:00:26.727Z,17.77
2019-01-20T05:02:56.422Z,14.07
2019-01-20T05:05:25.645Z,13.15
2019-01-20T05:07:56.175Z,17.37
2019-01-20T05:10:26.564Z,23.77
2019-01-20T05:12:56.195Z,21.47
2019-01-20T05:15:25.301Z,20.80
2019-01-20T05:17:54.128Z,18.67
2019-01-20T05:20:23.870Z,19.57
2019-01-20T05:22:52.858Z,15.45
2019-01-20T05:25:22.115Z,12.60
2019-01-20T05:27:51.183Z,19.95
2019-01-20T05:30:23.671Z,13.28
2019-01-20T05:32:52.874Z,16.20
2019-01-20T05:35:23.747Z,17.42
2019-01-20T05:37:52.670Z,20.92
2019-01-20T05:40:23.507Z,16.90
2019-01-20T05:42:52.397Z,18.87
2019-01-20T05:45:23.446Z,13.05
2019-01-20T05:47:57.200Z,14.30
2019-01-20T05:50:26.426Z,17.80
2019-01-20T05:52:56.318Z,26.87
2019-01-20T05:55:25.301Z,19.02
2019-01-20T05:57:54.242Z,20.68
2019-01-20T06:00:25.877Z,14.73
2019-01-20T06:02:55.730Z,16.75
2019-01-20T06:05:25.420Z,15.83
2019-01-20T06:07:54.393Z,20.17
2019-01-20T06:10:24.852Z,21.60
2019-01-20T06:12:54.584Z,16.70
2019-01-20T06:15:25.362Z,14.45
2019-01-20T06:17:54.965Z,13.90
2019-01-20T06:20:24.317Z,25.43
2019-01-20T06:22:53.358Z,16.07
2019-01-20T06:25:24.920Z,14.03
2019-01-20T06:27:55.380Z,16.52
2019-01-20T06:30:28.349Z,18.77
2019-01-20T06:32:57.379Z,18.90
2019-01-20T06:35:27.555Z,16.37
2019-01-20T06:37:56.463Z,20.48
2019-01-20T06:40:26.739Z,24.92
2019-01-20T06:43:01.769Z,24.10
2019-01-20T06:45:26.476Z,18.00
2019-01-20T06:47:56.039Z,17.90
2019-01-20T06:50:26.098Z,17.48
2019-01-20T06:52:56.537Z,19.70
2019-01-20T06:55:26.348Z,52.95
2019-01-20T06:57:55.263Z,45.10
2019-01-20T07:00:27.475Z,21.70
2019-01-20T07:02:56.370Z,26.05
2019-01-20T07:05:25.312Z,27.52
2019-01-20T07:07:54.632Z,27.22
2019-01-20T07:10:26.479Z,15.08
2019-01-20T07:12:56.108Z,26.65
2019-01-20T07:15:25.254Z,16.23
2019-01-20T07:17:54.450Z,17.17
2019-01-20T07:20:23.911Z,18.67
2019-01-20T07:22:54.233Z,16.35
2019-01-20T07:25:24.533Z,20.62
2019-01-20T07:27:55.437Z,19.23
2019-01-20T07:30:25.972Z,17.80
2019-01-20T07:32:57.603Z,15.68
2019-01-20T07:35:28.474Z,21.97
2019-01-20T07:37:57.448Z,18.17
2019-01-20T07:40:26.386Z,20.15
2019-01-20T07:42:56.130Z,20.60
2019-01-20T07:45:25.064Z,24.18
2019-01-20T07:47:53.989Z,32.83
2019-01-20T07:50:25.028Z,28.30
2019-01-20T07:52:54.136Z,38.65
2019-01-20T07:55:23.246Z,34.45
2019-01-20T07:57:53.282Z,31.87
2019-01-20T08:00:24.384Z,36.47
2019-01-20T08:02:53.485Z,42.33
2019-01-20T08:05:24.556Z,35.17
2019-01-20T08:07:53.576Z,29.60
2019-01-20T08:10:25.000Z,41.27
2019-01-20T08:12:54.039Z,34.87
2019-01-20T08:15:23.222Z,52.53
2019-01-20T08:17:53.589Z,29.87
2019-01-20T08:20:24.288Z,24.50
2019-01-20T08:22:53.503Z,33.53
2019-01-20T08:25:23.552Z,17.93
2019-01-20T08:27:52.689Z,18.60
2019-01-20T08:30:23.966Z,19.13
2019-01-20T08:32:52.962Z,18.33
2019-01-20T08:35:23.983Z,16.00
2019-01-20T08:37:53.022Z,18.60
2019-01-20T08:40:24.443Z,13.73
2019-01-20T08:42:53.296Z,11.87
2019-01-20T08:45:23.542Z,14.03
2019-01-20T08:47:54.326Z,14.07
2019-01-20T08:50:24.032Z,15.47
2019-01-20T08:52:52.920Z,10.63
2019-01-20T08:55:22.239Z,14.60
2019-01-20T08:57:51.050Z,11.60
2019-01-20T09:00:20.294Z,14.70
2019-01-20T09:02:50.654Z,22.17
2019-01-20T09:05:21.110Z,14.00
2019-01-20T09:07:51.531Z,15.03
2019-01-20T09:10:25.102Z,16.33
2019-01-20T09:12:56.440Z,15.23
2019-01-20T09:15:25.409Z,17.00
2019-01-20T09:17:54.416Z,21.73
2019-01-20T09:20:24.343Z,16.03
2019-01-20T09:22:54.629Z,12.30
2019-01-20T09:25:23.697Z,11.30
2019-01-20T09:27:52.683Z,13.00
2019-01-20T09:30:23.535Z,13.20
2019-01-20T09:32:52.767Z,14.70
2019-01-20T09:35:22.669Z,18.60
2019-01-20T09:37:53.783Z,20.53
2019-01-20T09:40:22.867Z,23.03
2019-01-20T09:42:52.778Z,21.80
2019-01-20T09:45:27.169Z,35.70
2019-01-20T09:47:56.399Z,28.03
2019-01-20T09:50:25.625Z,16.10
2019-01-20T09:52:54.906Z,19.50
2019-01-20T09:55:23.998Z,16.20
2019-01-20T09:57:54.122Z,13.57
2019-01-20T10:00:26.173Z,17.27
2019-01-20T10:02:55.454Z,18.17
2019-01-20T10:05:25.846Z,24.70
2019-01-20T10:08:01.048Z,25.33
2019-01-20T10:10:30.699Z,18.00
2019-01-20T10:12:59.736Z,49.53
2019-01-20T10:15:28.651Z,21.63
2019-01-20T10:17:58.227Z,24.27
2019-01-20T10:20:29.633Z,15.73
2019-01-20T10:22:59.597Z,17.20
2019-01-20T10:25:28.674Z,28.83
2019-01-20T10:27:58.800Z,14.33
2019-01-20T10:30:30.453Z,13.30
2019-01-20T10:33:03.672Z,12.60
2019-01-20T10:35:35.640Z,10.07
2019-01-20T10:38:06.816Z,17.70
2019-01-20T10:40:35.706Z,16.60
2019-01-20T10:43:06.485Z,16.30
2019-01-20T10:45:35.782Z,14.00
2019-01-20T10:48:05.866Z,19.47
2019-01-20T10:50:34.867Z,14.00
2019-01-20T10:53:03.932Z,17.30
2019-01-20T10:55:33.454Z,12.80
2019-01-20T10:58:03.112Z,13.93
2019-01-20T11:00:36.531Z,12.17
2019-01-20T11:03:06.848Z,12.07
2019-01-20T11:05:36.201Z,19.00
2019-01-20T11:08:06.822Z,12.07
2019-01-20T11:10:36.012Z,14.63
2019-01-20T11:13:05.690Z,13.70
2019-01-20T11:15:34.712Z,16.77
2019-01-20T11:18:03.749Z,22.40
2019-01-20T11:20:34.116Z,19.80
2019-01-20T11:23:03.152Z,15.83
2019-01-20T11:25:35.441Z,16.23
2019-01-20T11:28:04.849Z,17.63
2019-01-20T11:30:34.012Z,12.97
2019-01-20T11:33:05.202Z,16.80
2019-01-20T11:35:35.521Z,16.17
2019-01-20T11:38:05.991Z,12.53
2019-01-20T11:40:36.473Z,15.63
2019-01-20T11:43:07.111Z,14.30
2019-01-20T11:45:36.243Z,12.23
2019-01-20T11:48:08.737Z,13.80
2019-01-20T11:50:38.443Z,15.63
2019-01-20T11:53:07.473Z,12.00
2019-01-20T11:55:37.197Z,11.97
2019-01-20T11:58:06.156Z,21.83
2019-01-20T12:00:36.839Z,14.80
2019-01-20T12:03:07.782Z,12.63
2019-01-20T12:05:39.625Z,11.80
2019-01-20T12:08:09.149Z,13.00
2019-01-20T12:10:38.357Z,13.10
2019-01-20T12:13:10.200Z,16.53
2019-01-20T12:15:39.059Z,11.57
2019-01-20T12:18:08.048Z,14.90
2019-01-20T12:20:39.599Z,10.53
2019-01-20T12:23:08.684Z,13.50
2019-01-20T12:25:37.927Z,10.27
2019-01-20T12:28:07.034Z,16.27
2019-01-20T12:30:38.549Z,14.67
2019-01-20T12:33:07.888Z,10.20
2019-01-20T12:35:38.339Z,10.63
2019-01-20T12:38:07.388Z,10.40
2019-01-20T12:40:39.281Z,16.30
2019-01-20T12:43:11.482Z,10.30
2019-01-20T12:45:40.663Z,9.30
2019-01-20T12:48:09.669Z,10.90
2019-01-20T12:50:38.565Z,9.77
2019-01-20T12:53:10.213Z,15.13
2019-01-20T12:55:40.691Z,15.37
2019-01-20T12:58:11.242Z,11.90
2019-01-20T13:00:40.291Z,11.43
2019-01-20T13:03:11.892Z,10.60
2019-01-20T13:05:40.765Z,9.47
2019-01-20T13:08:09.650Z,9.03
2019-01-20T13:10:38.752Z,8.63
2019-01-20T13:13:09.128Z,8.97
2019-01-20T13:15:39.333Z,9.57
2019-01-20T13:18:08.546Z,8.90
2019-01-20T13:20:37.697Z,8.80
2019-01-20T13:23:06.713Z,6.37
2019-01-20T13:25:35.827Z,9.90
2019-01-20T13:28:05.683Z,7.10
2019-01-20T13:30:34.691Z,6.80
2019-01-20T13:33:03.633Z,7.40
2019-01-20T13:35:33.911Z,8.20
2019-01-20T13:38:05.412Z,8.77
2019-01-20T13:40:37.510Z,11.67
2019-01-20T13:43:07.779Z,8.53
2019-01-20T13:45:38.948Z,6.10
2019-01-20T13:48:11.418Z,7.77
2019-01-20T13:50:41.400Z,9.13
2019-01-20T13:53:11.100Z,6.77
2019-01-20T13:55:40.220Z,7.67
2019-01-20T13:58:09.327Z,7.00
2019-01-20T14:00:39.608Z,16.17
2019-01-20T14:03:09.499Z,10.37
2019-01-20T14:05:39.720Z,6.37
2019-01-20T14:08:08.887Z,7.83
2019-01-20T14:10:38.870Z,6.50
2019-01-20T14:13:09.221Z,7.10
2019-01-20T14:15:38.239Z,6.57
2019-01-20T14:18:08.365Z,7.90
2019-01-20T14:20:37.388Z,7.77
2019-01-20T14:23:06.447Z,8.17
2019-01-20T14:25:35.518Z,10.73
2019-01-20T14:28:07.447Z,8.13
2019-01-20T14:30:37.004Z,6.53
2019-01-20T14:33:06.138Z,6.30
2019-01-20T14:35:36.345Z,6.73
2019-01-20T14:38:05.418Z,7.50
2019-01-20T14:40:36.302Z,6.57
2019-01-20T14:45:56.818Z,6.20
2019-01-20T14:48:26.893Z,7.93
2019-01-20T14:50:55.969Z,7.47
2019-01-20T14:53:27.256Z,6.70
2019-01-20T14:55:57.568Z,6.73
2019-01-20T14:58:26.454Z,8.37
2019-01-20T15:00:55.907Z,8.70
2019-01-20T15:03:32.428Z,8.73
2019-01-20T15:05:58.771Z,9.13
2019-01-20T15:08:27.995Z,11.30
2019-01-20T15:10:57.000Z,7.63
2019-01-20T15:13:27.527Z,11.53
2019-01-20T15:15:56.531Z,7.50
2019-01-20T15:18:25.586Z,7.70
2019-01-20T15:20:57.250Z,12.77
2019-01-20T15:23:26.566Z,17.47
2019-01-20T15:25:56.944Z,12.70
2019-01-20T15:28:27.449Z,6.17
2019-01-20T15:30:56.824Z,13.33
2019-01-20T15:33:27.641Z,11.53
2019-01-20T15:35:56.906Z,6.83
2019-01-20T15:38:27.258Z,6.97
2019-01-20T15:43:49.944Z,16.77
2019-01-20T15:46:20.382Z,8.37
2019-01-20T15:48:51.348Z,7.80
2019-01-20T15:51:20.623Z,8.53
2019-01-20T15:53:53.306Z,9.20
2019-01-20T15:56:23.878Z,12.90
2019-01-20T15:58:53.784Z,8.90
2019-01-20T16:01:24.292Z,8.93
2019-01-20T16:03:54.256Z,19.67
2019-01-20T16:06:24.440Z,10.83
2019-01-20T16:08:57.953Z,13.93
2019-01-20T16:11:31.298Z,19.70
2019-01-20T16:13:58.818Z,21.20
2019-01-20T16:16:27.943Z,17.77
2019-01-20T16:19:02.039Z,19.17
2019-01-20T16:21:31.786Z,18.40
2019-01-20T16:24:00.895Z,22.73
2019-01-20T16:26:31.733Z,17.43
2019-01-20T16:29:01.700Z,21.70
2019-01-20T16:31:32.472Z,22.73
2019-01-20T16:34:02.247Z,21.03
2019-01-20T16:36:31.241Z,22.47
2019-01-20T16:39:01.460Z,27.33
2019-01-20T16:41:33.101Z,39.30
2019-01-20T16:44:05.018Z,33.73
2019-01-20T16:46:37.305Z,28.70
2019-01-20T16:49:06.424Z,30.30
2019-01-20T16:51:35.492Z,34.50
2019-01-20T16:54:04.786Z,31.27
2019-01-20T16:56:33.688Z,32.47
2019-01-20T16:59:02.876Z,29.10
2019-01-20T17:01:32.097Z,27.10
2019-01-20T17:04:01.076Z,24.67
2019-01-20T17:06:30.016Z,23.00
2019-01-20T17:09:00.427Z,31.23
2019-01-20T17:11:29.466Z,26.13
2019-01-20T17:13:58.538Z,28.13
2019-01-20T17:16:27.566Z,27.80
2019-01-20T17:18:58.018Z,28.73
2019-01-20T17:21:27.061Z,22.67
2019-01-20T17:23:56.134Z,31.60
2019-01-20T17:26:25.120Z,45.27
2019-01-20T17:28:54.114Z,23.33
2019-01-20T17:31:23.241Z,24.97
2019-01-20T17:33:54.057Z,26.70
2019-01-20T17:36:24.355Z,32.67
2019-01-20T17:38:53.278Z,27.33
2019-01-20T17:41:27.404Z,26.00
2019-01-20T17:43:56.634Z,26.30
2019-01-20T17:46:27.259Z,30.80
2019-01-20T17:48:57.890Z,33.93
2019-01-20T17:51:29.783Z,29.53
2019-01-20T17:54:01.385Z,28.17
2019-01-20T17:56:31.597Z,25.83
2019-01-20T17:59:01.682Z,29.23
2019-01-20T18:01:32.702Z,25.03
2019-01-20T18:04:03.224Z,29.60
2019-01-20T18:06:34.373Z,28.27
2019-01-20T18:09:03.791Z,33.80
2019-01-20T18:11:33.418Z,33.80
2019-01-20T18:14:02.525Z,35.73
2019-01-20T18:16:32.394Z,31.10
2019-01-20T18:19:01.653Z,34.47
2019-01-20T18:21:30.687Z,39.43
2019-01-20T18:23:59.730Z,30.87
2019-01-20T18:26:29.733Z,39.47
2019-01-20T18:28:59.741Z,23.87
2019-01-20T18:31:31.708Z,30.30
2019-01-20T18:34:02.048Z,27.33
2019-01-20T18:36:32.366Z,26.50
2019-01-20T18:39:01.561Z,46.37
2019-01-20T18:41:32.046Z,44.00
2019-01-20T18:44:01.081Z,21.53
2019-01-20T18:46:31.305Z,33.70
2019-01-20T18:49:00.334Z,38.57
2019-01-20T18:51:29.309Z,31.43
2019-01-20T18:53:59.134Z,31.37
2019-01-20T18:56:31.468Z,31.80
2019-01-20T18:59:01.415Z,28.97
2019-01-20T19:01:34.720Z,35.90
2019-01-20T19:04:04.095Z,39.70
2019-01-20T19:06:33.246Z,38.43
2019-01-20T19:09:02.453Z,41.43
2019-01-20T19:11:31.999Z,31.27
2019-01-20T19:14:01.132Z,25.80
2019-01-20T19:16:30.388Z,26.40
2019-01-20T19:19:00.087Z,32.43
2019-01-20T19:21:29.217Z,24.43
2019-01-20T19:23:59.194Z,28.73
2019-01-20T19:26:30.321Z,26.23
2019-01-20T19:29:03.169Z,37.50
2019-01-20T19:31:31.334Z,31.87
2019-01-20T19:34:00.673Z,27.57
2019-01-20T19:36:31.218Z,38.00
2019-01-20T19:39:01.801Z,31.30
2019-01-20T19:41:31.610Z,30.90
2019-01-20T19:44:02.913Z,31.23
2019-01-20T19:46:33.136Z,40.40
2019-01-20T19:49:03.674Z,30.57
2019-01-20T19:51:33.130Z,34.30
2019-01-20T19:54:03.309Z,27.30
2019-01-20T19:56:35.208Z,48.37
2019-01-20T19:59:04.488Z,48.60
2019-01-20T20:01:33.537Z,54.70
2019-01-20T20:04:04.079Z,34.30
2019-01-20T20:06:33.174Z,35.50
2019-01-20T20:09:02.312Z,36.77
2019-01-20T20:11:31.450Z,38.50
2019-01-20T20:14:00.324Z,35.73
2019-01-20T20:16:29.664Z,32.17
2019-01-20T20:18:58.557Z,33.90
2019-01-20T20:21:27.541Z,33.90
2019-01-20T20:23:56.400Z,39.75
2019-01-20T20:26:25.462Z,34.40
2019-01-20T20:28:54.459Z,39.20
2019-01-20T20:31:23.633Z,43.13
2019-01-20T20:33:52.684Z,54.97
2019-01-20T20:36:21.858Z,49.10
2019-01-20T20:38:52.743Z,44.03
2019-01-20T20:41:21.872Z,39.47
2019-01-20T20:43:51.072Z,40.00
2019-01-20T20:46:20.570Z,48.70
2019-01-20T20:48:50.064Z,44.27
2019-01-20T20:51:19.050Z,45.30
2019-01-20T20:53:49.600Z,52.70
2019-01-20T20:56:18.912Z,60.40
2019-01-20T20:58:49.488Z,58.77
2019-01-20T21:01:21.218Z,53.17
2019-01-20T21:03:50.208Z,64.83
2019-01-20T21:06:19.286Z,58.00
2019-01-20T21:08:48.603Z,60.80
2019-01-20T21:11:17.574Z,55.03
2019-01-20T21:13:46.420Z,56.70
2019-01-20T21:16:15.434Z,54.30
2019-01-20T21:18:45.331Z,45.93
2019-01-20T21:21:14.441Z,40.17
2019-01-20T21:23:43.371Z,39.00
2019-01-20T21:26:12.334Z,33.27
2019-01-20T21:28:42.794Z,36.60
2019-01-20T21:31:12.075Z,32.90
2019-01-20T21:33:43.610Z,31.63
2019-01-20T21:36:13.650Z,35.43
2019-01-20T21:38:42.571Z,36.37
2019-01-20T21:41:12.681Z,41.00
2019-01-20T21:43:41.906Z,37.70
2019-01-20T21:46:10.788Z,39.67
2019-01-20T21:48:41.149Z,38.53
2019-01-20T21:51:10.081Z,44.13
2019-01-20T21:53:39.438Z,37.28
2019-01-20T21:56:08.317Z,43.98
2019-01-20T21:58:37.342Z,48.63
2019-01-20T22:01:06.314Z,47.43
2019-01-20T22:03:35.271Z,50.75
2019-01-20T22:06:04.354Z,36.98
2019-01-20T22:08:34.976Z,32.90
2019-01-20T22:11:05.066Z,49.35
2019-01-20T22:13:35.372Z,45.90
2019-01-20T22:16:04.347Z,51.65
2019-01-20T22:18:33.883Z,41.90
2019-01-20T22:21:02.783Z,41.48
2019-01-20T22:23:31.866Z,42.60
2019-01-20T22:26:01.131Z,41.98
2019-01-20T22:28:31.666Z,41.10
2019-01-20T22:31:00.595Z,42.70
2019-01-20T22:33:29.480Z,44.93
2019-01-20T22:35:58.469Z,54.33
2019-01-20T22:38:27.417Z,50.50
2019-01-20T22:40:56.464Z,45.48
2019-01-20T22:43:25.495Z,53.70
2019-01-20T22:45:54.623Z,49.03
2019-01-20T22:48:23.771Z,48.30
2019-01-20T22:50:52.774Z,39.53
2019-01-20T22:53:21.701Z,44.73
2019-01-20T22:55:50.668Z,45.98
2019-01-20T22:58:19.892Z,46.25
2019-01-20T23:00:52.880Z,43.42
2019-01-20T23:03:22.201Z,46.20
2019-01-20T23:05:51.523Z,46.85
2019-01-20T23:08:21.882Z,44.60
2019-01-20T23:10:51.195Z,41.23
2019-01-20T23:13:20.266Z,42.73
2019-01-20T23:15:49.468Z,43.78
2019-01-20T23:18:21.195Z,41.05
2019-01-20T23:20:50.843Z,39.50
2019-01-20T23:23:24.401Z,42.88
2019-01-20T23:25:53.389Z,43.42
2019-01-20T23:28:25.113Z,42.93
2019-01-20T23:30:54.446Z,43.63
2019-01-20T23:33:25.082Z,48.50
2019-01-20T23:35:54.041Z,43.40
2019-01-20T23:38:22.963Z,53.52
2019-01-20T23:40:52.340Z,45.08
2019-01-20T23:43:21.240Z,44.35
2019-01-20T23:45:50.284Z,49.38
2019-01-20T23:48:19.178Z,51.42
2019-01-20T23:50:48.799Z,42.60
2019-01-20T23:53:19.343Z,41.40
2019-01-20T23:55:48.284Z,41.63
2019-01-20T23:58:17.518Z,53.30
